Time;durP1;ratioP1;P1;durP2;ratioP2;P2;SDS_P1;SDS_P2;PMS_P1;PMS_P2;Temp;Humidity;BMP_temperature;BMP_pressure;BME280_temperature;BME280_humidity;BME280_pressure;Samples;Min_cycle;Max_cycle;Signal;HPM_P1;HPM_P2
2023/04/29 00:01:10;;;;;;;37.92;19.33;;;;;;;9.10;100.00;101567.72;10315689;28;20057;-72
2023/04/29 00:06:10;;;;;;;33.40;16.90;;;;;;;9.07;100.00;101566.19;10315687;28;20041;-72
2023/04/29 00:11:11;;;;;;;31.02;18.17;;;;;;;9.11;100.00;101582.91;10285235;28;20449;-72
2023/04/29 00:16:12;;;;;;;26.27;16.08;;;;;;;9.11;100.00;101579.38;10316566;28;20162;-72
2023/04/29 00:21:13;;;;;;;28.23;17.77;;;;;;;9.04;100.00;101580.03;10301629;28;20133;-72
2023/04/29 00:26:13;;;;;;;37.92;19.33;;;;;;;9.04;100.00;101585.44;10333238;28;20034;-72
2023/04/29 00:31:14;;;;;;;34.70;19.65;;;;;;;9.02;100.00;101594.72;10315046;28;20034;-72
2023/04/29 00:36:14;;;;;;;34.72;18.50;;;;;;;8.99;100.00;101598.59;10332487;28;20070;-72
2023/04/29 00:41:15;;;;;;;25.48;16.67;;;;;;;8.96;100.00;101598.09;10340121;28;20168;-72
2023/04/29 00:46:16;;;;;;;20.65;15.90;;;;;;;8.83;100.00;101609.41;10340994;28;20062;-72
2023/04/29 00:51:17;;;;;;;31.17;17.67;;;;;;;8.81;100.00;101606.06;10340714;28;20073;-71
2023/04/29 00:56:19;;;;;;;28.58;15.70;;;;;;;8.81;100.00;101606.06;10339881;28;20043;-71
2023/04/29 01:01:20;;;;;;;28.25;18.15;;;;;;;8.82;100.00;101613.16;10322796;28;20041;-72
2023/04/29 01:06:56;;;;;;;28.05;17.95;;;;;;;8.82;100.00;101618.53;10338988;28;20057;-72
2023/04/29 01:12:22;;;;;;;21.38;16.15;;;;;;;8.81;100.00;101628.50;10323166;28;20026;-71
2023/04/29 01:17:25;;;;;;;22.80;16.33;;;;;;;8.78;100.00;101628.00;10309540;28;20038;-72
2023/04/29 01:22:26;;;;;;;19.67;16.20;;;;;;;8.77;100.00;101627.13;10322365;28;20265;-71
2023/04/29 01:27:36;;;;;;;23.77;17.17;;;;;;;8.77;100.00;101626.28;10322760;28;20359;-72
2023/04/29 01:32:53;;;;;;;19.10;16.60;;;;;;;8.84;100.00;101638.13;10305758;28;20396;-71
2023/04/29 01:38:06;;;;;;;22.88;17.50;;;;;;;8.84;100.00;101636.28;10338592;28;20504;-72
2023/04/29 01:43:10;;;;;;;34.92;17.90;;;;;;;8.88;100.00;101639.47;10320800;28;20034;-71
2023/04/29 01:48:11;;;;;;;21.77;18.15;;;;;;;8.90;100.00;101631.19;10337534;28;20184;-71
2023/04/29 01:53:11;;;;;;;23.25;17.73;;;;;;;8.90;100.00;101642.84;10305226;28;20080;-72
2023/04/29 01:58:12;;;;;;;27.50;18.27;;;;;;;8.92;100.00;101645.38;10336898;28;20410;-71
2023/04/29 02:03:12;;;;;;;23.63;16.42;;;;;;;8.95;100.00;101650.47;10338537;28;20097;-72
2023/04/29 02:08:13;;;;;;;27.00;17.77;;;;;;;8.95;100.00;101645.91;10336202;28;20034;-71
2023/04/29 02:13:13;;;;;;;22.83;16.00;;;;;;;9.01;100.00;101650.63;10319768;28;20038;-73
2023/04/29 02:18:14;;;;;;;27.88;16.27;;;;;;;9.03;100.00;101658.53;10320421;28;20030;-71
2023/04/29 02:23:14;;;;;;;24.73;15.57;;;;;;;9.07;100.00;101671.56;10336842;28;20501;-71
2023/04/29 02:28:15;;;;;;;20.40;16.00;;;;;;;9.08;100.00;101672.41;10336700;28;20399;-71
2023/04/29 02:33:15;;;;;;;21.42;14.48;;;;;;;9.11;100.00;101679.34;10336392;28;20130;-72
2023/04/29 02:38:16;;;;;;;28.23;14.77;;;;;;;9.06;100.00;101680.69;10319750;28;20124;-71
2023/04/29 02:43:16;;;;;;;26.60;15.68;;;;;;;9.05;100.00;101688.94;10335589;28;20073;-71
2023/04/29 02:48:16;;;;;;;22.90;14.48;;;;;;;9.08;100.00;101694.03;10318059;28;20026;-71
2023/04/29 02:53:17;;;;;;;19.92;14.25;;;;;;;9.10;100.00;101691.16;10318184;28;20045;-72
2023/04/29 02:58:17;;;;;;;21.63;14.18;;;;;;;9.10;100.00;101701.97;10336005;28;20052;-72
2023/04/29 03:03:18;;;;;;;24.95;13.48;;;;;;;9.11;100.00;101715.31;10334187;28;20045;-71
2023/04/29 03:08:18;;;;;;;19.73;13.32;;;;;;;9.15;100.00;101718.50;10286351;28;20171;-72
2023/04/29 03:13:19;;;;;;;18.83;12.23;;;;;;;9.14;100.00;101716.81;10333500;28;20039;-71
2023/04/29 03:18:20;;;;;;;14.40;12.60;;;;;;;9.15;100.00;101715.81;10334288;28;20031;-71
2023/04/29 03:23:21;;;;;;;17.13;10.00;;;;;;;9.19;100.00;101722.56;10333798;28;20049;-72
2023/04/29 03:28:21;;;;;;;26.13;13.88;;;;;;;9.16;100.00;101718.34;10317990;28;20039;-71
2023/04/29 03:33:22;;;;;;;18.55;13.38;;;;;;;9.20;100.00;101722.41;10333953;28;20486;-71
2023/04/29 03:38:23;;;;;;;17.48;13.95;;;;;;;9.20;100.00;101721.56;10333434;28;20088;-71
2023/04/29 03:43:23;;;;;;;19.48;12.85;;;;;;;9.22;100.00;101722.22;10300208;28;20039;-71
2023/04/29 03:48:24;;;;;;;27.95;13.35;;;;;;;9.25;100.00;101724.59;10300076;28;20045;-71
2023/04/29 03:53:25;;;;;;;23.52;12.88;;;;;;;9.27;100.00;101731.53;10300366;28;20117;-71
2023/04/29 03:58:25;;;;;;;25.23;13.35;;;;;;;9.30;100.00;101735.75;10299287;28;20054;-71
2023/04/29 04:03:27;;;;;;;25.08;13.50;;;;;;;9.27;100.00;101731.53;10333197;28;20122;-70
2023/04/29 04:08:27;;;;;;;16.05;13.93;;;;;;;9.28;100.00;101732.34;10334340;28;20046;-71
2023/04/29 04:13:28;;;;;;;17.33;13.85;;;;;;;9.29;100.00;101739.47;10333890;28;20065;-71
2023/04/29 04:18:28;;;;;;;18.95;11.45;;;;;;;9.31;100.00;101753.66;10333165;28;20038;-71
2023/04/29 04:23:29;;;;;;;18.60;13.05;;;;;;;9.31;100.00;101746.38;10332198;28;20070;-71
2023/04/29 04:28:29;;;;;;;15.70;12.15;;;;;;;9.34;100.00;101763.28;10333250;28;20037;-71
2023/04/29 04:33:30;;;;;;;16.30;12.40;;;;;;;9.35;100.00;101768.53;10331868;28;20490;-70
2023/04/29 04:38:31;;;;;;;23.67;13.20;;;;;;;9.37;100.00;101763.78;10332364;28;20045;-71
2023/04/29 04:43:32;;;;;;;24.60;13.57;;;;;;;9.38;100.00;101770.91;10299939;28;20066;-71
2023/04/29 04:48:32;;;;;;;21.10;13.80;;;;;;;9.40;100.00;101782.38;10315638;28;20065;-70
2023/04/29 04:53:33;;;;;;;22.40;13.27;;;;;;;9.44;100.00;101807.22;10315656;28;20030;-71
2023/04/29 04:58:33;;;;;;;18.83;14.10;;;;;;;9.49;100.00;101808.41;10314167;28;20082;-70
2023/04/29 05:03:34;;;;;;;20.67;14.02;;;;;;;9.50;100.00;101812.78;10332349;28;20050;-71
2023/04/29 05:08:34;;;;;;;25.17;15.20;;;;;;;9.53;100.00;101817.88;10330431;28;20038;-70
2023/04/29 05:13:35;;;;;;;21.85;14.05;;;;;;;9.59;100.00;101820.91;10331559;28;20443;-71
2023/04/29 05:18:35;;;;;;;28.05;15.18;;;;;;;9.61;100.00;101829.72;10331518;28;20069;-71
2023/04/29 05:23:35;;;;;;;22.83;14.32;;;;;;;9.65;100.00;101828.34;10315006;28;20030;-71
2023/04/29 05:28:36;;;;;;;24.48;15.05;;;;;;;9.68;100.00;101831.56;10339521;28;20069;-71
2023/04/29 05:33:36;;;;;;;32.33;16.90;;;;;;;9.74;100.00;101846.28;10321096;28;20097;-71
2023/04/29 05:38:37;;;;;;;29.35;16.58;;;;;;;9.79;100.00;101846.59;10338347;28;20031;-71
2023/04/29 05:43:37;;;;;;;36.33;18.70;;;;;;;9.83;100.00;101847.97;10338263;28;20057;-71
2023/04/29 05:48:37;;;;;;;27.80;16.65;;;;;;;9.91;100.00;101847.97;10338046;28;20394;-71
2023/04/29 05:53:39;;;;;;;25.58;16.67;;;;;;;9.90;100.00;101864.38;10337929;28;20038;-71
2023/04/29 05:58:41;;;;;;;18.15;14.43;;;;;;;10.01;100.00;101882.97;10319343;28;20046;-71
2023/04/29 06:03:41;;;;;;;32.75;16.70;;;;;;;10.08;100.00;101893.94;10337454;28;20049;-70
2023/04/29 06:08:41;;;;;;;28.77;17.85;;;;;;;10.12;100.00;101898.03;10338396;28;20042;-72
2023/04/29 06:13:42;;;;;;;26.05;17.13;;;;;;;10.19;100.00;101904.44;10303487;28;20489;-71
2023/04/29 06:18:42;;;;;;;26.73;16.35;;;;;;;10.27;100.00;101912.56;10318871;28;20062;-71
2023/04/29 06:23:42;;;;;;;22.67;15.20;;;;;;;10.41;100.00;101911.06;10336740;28;20038;-71
2023/04/29 06:28:43;;;;;;;26.05;16.00;;;;;;;10.60;100.00;101905.25;10335637;28;20508;-71
2023/04/29 06:33:43;;;;;;;28.58;14.93;;;;;;;10.93;100.00;101916.81;10319849;28;20039;-71
2023/04/29 06:38:44;;;;;;;20.35;12.88;;;;;;;11.21;100.00;101915.53;10336859;28;20061;-71
2023/04/29 06:43:44;;;;;;;26.63;14.13;;;;;;;12.03;100.00;101926.75;10335085;28;20061;-71
2023/04/29 06:48:45;;;;;;;27.80;12.23;;;;;;;13.30;100.00;101941.22;10336100;28;20556;-71
2023/04/29 06:53:47;;;;;;;18.75;12.75;;;;;;;14.62;100.00;101939.00;10335297;28;20489;-70
2023/04/29 06:58:47;;;;;;;13.57;10.57;;;;;;;15.41;100.00;101953.25;10334184;28;20391;-71
2023/04/29 07:03:47;;;;;;;19.67;9.63;;;;;;;16.17;100.00;101953.06;10317060;28;20121;-71
2023/04/29 07:08:48;;;;;;;12.93;8.98;;;;;;;16.61;100.00;101957.06;10334865;28;20066;-74
2023/04/29 07:13:48;;;;;;;10.48;8.20;;;;;;;16.83;100.00;101976.84;10335207;28;20351;-71
2023/04/29 07:18:49;;;;;;;10.90;8.13;;;;;;;17.43;100.00;101972.06;10334490;28;20474;-71
2023/04/29 07:23:49;;;;;;;11.63;6.70;;;;;;;17.09;100.00;101981.44;10334607;28;20038;-71
2023/04/29 07:28:50;;;;;;;6.63;5.93;;;;;;;16.66;100.00;101981.91;10317067;28;20084;-70
2023/04/29 07:33:50;;;;;;;11.75;6.32;;;;;;;16.24;100.00;101990.31;10333989;28;20042;-71
2023/04/29 07:38:51;;;;;;;12.65;6.30;;;;;;;15.17;100.00;101998.28;10332746;28;20189;-70
2023/04/29 07:43:51;;;;;;;11.90;7.18;;;;;;;14.52;100.00;102011.28;10316643;28;20536;-71
2023/04/29 07:48:52;;;;;;;12.80;6.88;;;;;;;15.64;100.00;101996.63;10332141;28;20049;-71
2023/04/29 07:53:52;;;;;;;9.95;6.68;;;;;;;17.30;100.00;101996.75;10299778;28;20034;-71
2023/04/29 07:58:53;;;;;;;11.52;7.50;;;;;;;18.53;100.00;101996.47;10333944;28;20104;-70
2023/04/29 08:03:53;;;;;;;11.65;6.30;;;;;;;18.28;100.00;102007.44;10299466;28;20043;-71
2023/04/29 08:08:55;;;;;;;13.23;5.75;;;;;;;17.28;100.00;102007.06;10333081;28;20087;-71
2023/04/29 08:13:58;;;;;;;14.45;5.50;;;;;;;17.95;100.00;102013.13;10332681;28;20050;-71
2023/04/29 08:18:58;;;;;;;9.95;5.00;;;;;;;18.34;100.00;102012.88;10331971;28;20367;-71
2023/04/29 08:23:58;;;;;;;7.05;6.28;;;;;;;19.39;100.00;102017.59;10315744;28;20043;-71
2023/04/29 08:28:59;;;;;;;11.02;5.45;;;;;;;20.57;100.00;102018.97;10315976;28;20038;-71
2023/04/29 08:33:59;;;;;;;7.03;5.00;;;;;;;20.75;100.00;102026.31;10333080;28;20057;-71
2023/04/29 08:39:00;;;;;;;5.80;4.85;;;;;;;21.23;100.00;102018.88;10332761;28;20034;-71
2023/04/29 08:44:00;;;;;;;8.07;5.13;;;;;;;21.73;100.00;102018.28;10315639;28;20072;-71
2023/04/29 08:49:02;;;;;;;6.55;4.60;;;;;;;19.80;100.00;102023.50;10331735;28;20525;-71
2023/04/29 08:54:03;;;;;;;11.27;5.45;;;;;;;19.33;100.00;102024.03;10332182;28;20457;-71
2023/04/29 08:59:03;;;;;;;5.68;5.15;;;;;;;18.90;100.00;102033.13;10299752;28;20054;-71
2023/04/29 09:04:13;;;;;;;8.98;5.97;;;;;;;17.95;100.00;102041.38;10322674;28;20034;-73
2023/04/29 09:09:14;;;;;;;9.55;5.22;;;;;;;17.69;100.00;102036.84;10338836;28;20153;-71
2023/04/29 09:14:14;;;;;;;14.85;4.93;;;;;;;18.28;100.00;102030.22;10321797;28;20037;-71
2023/04/29 09:19:29;;;;;;;7.72;6.95;;;;;;;19.21;100.00;102034.09;10306411;28;20034;-72
2023/04/29 09:24:30;;;;;;;11.43;6.45;;;;;;;20.34;100.00;102044.50;10305598;28;20050;-72
2023/04/29 09:29:31;;;;;;;5.15;4.65;;;;;;;20.95;100.00;102050.72;10339249;28;20112;-71
2023/04/29 09:34:34;;;;;;;10.90;5.65;;;;;;;19.83;100.00;102042.28;10321166;28;20480;-70
2023/04/29 09:39:38;;;;;;;5.75;5.13;;;;;;;19.46;100.00;102054.13;10338921;28;20122;-71
2023/04/29 09:44:40;;;;;;;9.65;4.68;;;;;;;19.02;100.00;102064.28;10320677;28;20477;-72
2023/04/29 09:49:44;;;;;;;6.10;5.20;;;;;;;18.54;100.00;102059.38;10320567;28;20521;-72
2023/04/29 09:54:44;;;;;;;9.57;4.47;;;;;;;18.99;100.00;102066.63;10321141;28;20098;-72
2023/04/29 09:59:44;;;;;;;13.13;4.90;;;;;;;20.12;100.00;102070.84;10338273;28;20116;-71
2023/04/29 10:04:46;;;;;;;13.30;6.28;;;;;;;18.92;100.00;102076.81;10338491;28;20061;-71
2023/04/29 10:09:47;;;;;;;6.90;4.88;;;;;;;19.58;100.00;102084.38;10336465;28;20517;-71
2023/04/29 10:14:53;;;;;;;7.03;4.95;;;;;;;21.06;100.00;102084.88;10320188;28;20041;-75
2023/04/29 10:19:58;;;;;;;;;;;;;;;20.28;100.00;102077.63;10319001;28;20035;-73
2023/04/29 10:25:00;;;;;;;7.78;5.35;;;;;;;19.74;100.00;102086.56;10335767;28;19920;-72
2023/04/29 10:30:00;;;;;;;11.88;5.63;;;;;;;21.46;100.00;102078.66;10319411;28;20034;-74
2023/04/29 10:35:02;;;;;;;5.82;4.60;;;;;;;20.35;100.00;102081.09;10302680;28;20038;-75
2023/04/29 10:40:14;;;;;;;6.25;5.45;;;;;;;20.44;100.00;102075.03;10336314;28;20033;-72
2023/04/29 10:45:32;;;;;;;9.57;4.72;;;;;;;21.03;100.00;102072.41;10270055;28;20077;-72
2023/04/29 10:50:34;;;;;;;5.43;4.35;;;;;;;20.81;100.00;102071.31;10335614;28;20382;-72
2023/04/29 10:55:36;;;;;;;6.20;4.30;;;;;;;21.93;100.00;102073.88;10317954;28;20046;-72
2023/04/29 11:00:37;;;;;;;6.63;5.13;;;;;;;20.57;100.00;102071.25;10335589;28;20501;-72
2023/04/29 11:05:38;;;;;;;6.40;3.33;;;;;;;22.21;100.00;102077.75;10317376;28;20030;-72
2023/04/29 11:10:42;;;;;;;5.30;4.10;;;;;;;21.73;100.00;102076.19;10317969;28;20042;-74
2023/04/29 11:15:42;;;;;;;15.57;5.15;;;;;;;20.72;100.00;102078.25;10317690;28;20130;-73
2023/04/29 11:21:05;;;;;;;9.75;5.00;;;;;;;22.73;100.00;102080.34;10335032;28;20490;-72
2023/04/29 11:26:05;;;;;;;13.18;4.68;;;;;;;22.26;100.00;102086.13;10334107;28;20438;-72
2023/04/29 11:31:06;;;;;;;8.77;4.05;;;;;;;21.86;100.00;102075.06;10333921;28;20061;-71
2023/04/29 11:36:06;;;;;;;3.78;3.47;;;;;;;22.05;100.00;102085.69;10316094;28;20029;-72
2023/04/29 11:41:07;;;;;;;5.65;4.57;;;;;;;23.40;100.00;102082.25;10316084;28;20378;-71
2023/04/29 11:46:12;;;;;;;11.48;4.85;;;;;;;22.06;100.00;102086.53;10316380;28;20030;-71
2023/04/29 11:51:13;;;;;;;5.85;4.40;;;;;;;22.61;100.00;102090.63;10274741;28;20058;-72
2023/04/29 11:56:13;;;;;;;7.00;4.28;;;;;;;23.16;99.36;102087.13;10315150;28;20153;-73
2023/04/29 12:01:14;;;;;;;10.82;3.90;;;;;;;22.81;100.00;102082.66;10333188;28;20046;-72
2023/04/29 12:06:14;;;;;;;6.57;4.57;;;;;;;22.86;100.00;102090.22;10316254;28;20042;-73
2023/04/29 12:11:15;;;;;;;4.78;4.22;;;;;;;22.97;100.00;102092.94;10332316;28;20513;-73
2023/04/29 12:16:15;;;;;;;10.35;3.97;;;;;;;22.72;98.55;102092.47;10300081;28;20504;-73
2023/04/29 12:21:16;;;;;;;10.52;4.50;;;;;;;22.80;100.00;102094.81;10315788;28;20062;-73
2023/04/29 12:26:18;;;;;;;5.57;4.95;;;;;;;22.84;100.00;102095.97;10332255;28;20034;-73
2023/04/29 12:31:18;;;;;;;5.57;4.35;;;;;;;22.84;100.00;102095.97;10314852;28;20046;-73
2023/04/29 12:36:18;;;;;;;13.00;5.70;;;;;;;22.82;100.00;102102.88;10339293;28;20492;-72
2023/04/29 12:41:20;;;;;;;7.35;4.95;;;;;;;22.82;100.00;102111.97;10340560;28;20062;-73
2023/04/29 12:46:20;;;;;;;10.02;6.00;;;;;;;22.68;100.00;102108.69;10342034;28;20121;-73
2023/04/29 12:51:20;;;;;;;16.80;5.40;;;;;;;22.56;100.00;102110.72;10290607;28;20562;-72
2023/04/29 12:56:21;;;;;;;5.85;5.18;;;;;;;22.09;100.00;102115.56;10306287;28;20042;-72
2023/04/29 13:01:21;;;;;;;5.63;4.25;;;;;;;21.39;100.00;102117.38;10323095;28;20069;-75
2023/04/29 13:06:22;;;;;;;7.38;5.10;;;;;;;21.68;100.00;102115.53;10306569;28;20474;-73
2023/04/29 13:11:22;;;;;;;5.70;4.97;;;;;;;21.57;97.54;102113.66;10322233;28;20042;-73
2023/04/29 13:16:24;;;;;;;9.90;4.95;;;;;;;21.84;98.11;102113.94;10321852;28;20485;-73
2023/04/29 13:21:24;;;;;;;5.30;4.68;;;;;;;22.16;99.28;102121.78;10307012;28;20455;-73
2023/04/29 13:26:25;;;;;;;5.88;4.32;;;;;;;22.03;100.00;102112.69;10338132;28;20041;-74
2023/04/29 13:31:26;;;;;;;6.38;3.80;;;;;;;21.85;100.00;102118.38;10305431;28;20057;-73
2023/04/29 13:36:27;;;;;;;8.90;4.47;;;;;;;21.79;99.29;102117.44;10338156;28;20425;-74
2023/04/29 13:41:27;;;;;;;3.50;3.13;;;;;;;21.90;95.30;102121.25;10339757;28;20117;-72
2023/04/29 13:46:28;;;;;;;7.78;5.75;;;;;;;21.83;95.04;102120.53;10320142;28;20124;-73
2023/04/29 13:51:28;;;;;;;5.88;4.72;;;;;;;21.70;96.56;102134.59;10320713;28;20035;-73
2023/04/29 13:56:29;;;;;;;6.35;5.07;;;;;;;21.58;99.03;102127.16;10337666;28;20475;-74
2023/04/29 14:01:29;;;;;;;5.88;3.92;;;;;;;21.31;93.54;102131.44;10320598;28;20062;-75
2023/04/29 14:06:33;;;;;;;6.28;4.45;;;;;;;21.05;99.51;102132.75;10322071;28;20030;-75
2023/04/29 14:11:35;;;;;;;6.18;4.28;;;;;;;20.87;100.00;102133.72;10321637;28;20425;-75
2023/04/29 14:16:35;;;;;;;5.72;3.38;;;;;;;20.49;96.04;102140.38;10338525;28;20030;-74
2023/04/29 14:21:36;;;;;;;4.72;3.47;;;;;;;20.07;93.53;102147.69;10320069;28;20041;-74
2023/04/29 14:26:36;;;;;;;7.93;4.07;;;;;;;20.04;91.84;102151.78;10306490;28;20035;-75
2023/04/29 14:31:37;;;;;;;4.07;3.53;;;;;;;19.63;94.01;102153.25;10321203;28;20371;-74
2023/04/29 14:36:37;;;;;;;5.80;5.00;;;;;;;19.43;90.02;102152.59;10254338;28;20048;-73
2023/04/29 14:41:37;;;;;;;6.95;3.72;;;;;;;19.26;94.13;102144.94;10340208;28;20050;-74
2023/04/29 14:46:38;;;;;;;5.68;3.85;;;;;;;19.05;86.72;102148.94;10304058;28;20120;-73
2023/04/29 14:51:38;;;;;;;4.03;3.70;;;;;;;19.01;90.11;102149.59;10336802;28;20449;-73
2023/04/29 14:56:39;;;;;;;7.13;4.10;;;;;;;19.02;91.90;102159.53;10316841;28;20137;-73
2023/04/29 15:01:39;;;;;;;8.70;3.83;;;;;;;18.71;91.11;102161.19;10336117;28;20462;-73
2023/04/29 15:06:40;;;;;;;3.80;3.50;;;;;;;18.71;90.78;102176.81;10301460;28;20030;-73
2023/04/29 15:11:40;;;;;;;7.70;4.72;;;;;;;18.48;94.04;102164.47;10334438;28;20042;-73
2023/04/29 15:16:41;;;;;;;5.65;4.32;;;;;;;18.30;94.65;102181.66;10335150;28;20085;-73
2023/04/29 15:21:41;;;;;;;9.13;4.60;;;;;;;18.01;94.79;102172.06;10334867;28;20046;-73
2023/04/29 15:26:41;;;;;;;4.30;3.38;;;;;;;17.87;95.42;102171.28;10334497;28;20065;-73
2023/04/29 15:31:42;;;;;;;4.65;3.85;;;;;;;17.72;96.58;102172.53;10301281;28;20114;-73
2023/04/29 15:36:42;;;;;;;7.10;4.15;;;;;;;17.56;97.43;102176.56;10333378;28;20038;-73
2023/04/29 15:41:42;;;;;;;6.47;4.47;;;;;;;17.25;83.74;102171.75;10315800;28;20133;-73
2023/04/29 15:46:43;;;;;;;9.35;3.65;;;;;;;17.13;88.60;102174.25;10335123;28;20109;-72
2023/04/29 15:51:43;;;;;;;8.80;4.80;;;;;;;16.60;88.51;102174.19;10315748;28;20034;-73
2023/04/29 15:56:44;;;;;;;10.52;5.20;;;;;;;16.20;78.70;102179.50;10332950;28;20546;-72
2023/04/29 16:01:44;;;;;;;5.75;3.95;;;;;;;15.86;87.51;102178.50;10316351;28;20070;-73
2023/04/29 16:06:45;;;;;;;4.28;3.33;;;;;;;15.55;87.81;102185.19;10332785;28;20112;-72
2023/04/29 16:11:45;;;;;;;5.50;4.07;;;;;;;15.36;88.06;102191.34;10300450;28;20343;-72
2023/04/29 16:16:46;;;;;;;6.53;3.50;;;;;;;15.08;84.82;102203.06;10315365;28;20463;-72
2023/04/29 16:21:46;;;;;;;4.70;3.53;;;;;;;14.82;85.68;102206.38;10314709;28;20038;-72
2023/04/29 16:26:47;;;;;;;5.20;3.05;;;;;;;14.56;74.34;102204.19;10314968;28;20037;-72
2023/04/29 16:31:47;;;;;;;3.13;2.83;;;;;;;14.47;77.84;102215.38;10332498;28;20030;-73
2023/04/29 16:36:47;;;;;;;3.50;2.90;;;;;;;14.24;78.34;102212.78;10298940;28;20466;-72
2023/04/29 16:41:48;;;;;;;4.57;3.30;;;;;;;13.91;81.75;102210.44;10332444;28;20045;-73
2023/04/29 16:46:48;;;;;;;4.07;3.00;;;;;;;13.70;83.74;102209.31;10298925;28;20117;-73
2023/04/29 16:51:49;;;;;;;3.80;2.97;;;;;;;13.42;82.97;102206.34;10331622;28;20137;-73
2023/04/29 16:56:49;;;;;;;4.93;3.47;;;;;;;13.18;82.99;102204.69;10283679;28;20480;-73
2023/04/29 17:01:50;;;;;;;5.78;2.67;;;;;;;12.94;83.83;102199.41;10313940;28;20379;-73
2023/04/29 17:06:50;;;;;;;3.67;2.95;;;;;;;12.84;84.57;102199.66;10331334;28;20532;-72
2023/04/29 17:11:51;;;;;;;7.60;2.50;;;;;;;12.71;85.57;102196.69;10298878;28;20096;-73
2023/04/29 17:16:52;;;;;;;6.43;2.53;;;;;;;12.55;83.91;102200.38;10313655;28;20543;-72
2023/04/29 17:21:53;;;;;;;2.53;2.33;;;;;;;12.40;84.04;102207.56;10337418;28;20052;-72
2023/04/29 17:26:53;;;;;;;3.55;1.88;;;;;;;12.16;83.83;102213.97;10321389;28;20027;-72
2023/04/29 17:31:58;;;;;;;5.88;2.75;;;;;;;12.05;84.70;102218.75;10338622;28;20081;-73
2023/04/29 17:36:58;;;;;;;12.32;3.95;;;;;;;11.96;84.05;102205.38;10338057;28;20038;-72
2023/04/29 17:42:00;;;;;;;6.43;2.13;;;;;;;11.81;83.60;102225.06;10322030;28;20077;-72
2023/04/29 17:47:00;;;;;;;3.65;2.03;;;;;;;11.72;82.91;102217.97;10321905;28;20037;-72
2023/04/29 17:52:02;;;;;;;2.40;2.20;;;;;;;11.61;84.98;102216.47;10338836;28;20039;-72
2023/04/29 17:57:03;;;;;;;2.58;2.17;;;;;;;11.51;85.35;102212.22;10321281;28;20054;-72
2023/04/29 18:02:03;;;;;;;6.10;2.97;;;;;;;11.43;83.13;102220.41;10321344;28;20474;-72
2023/04/29 18:07:04;;;;;;;4.80;2.50;;;;;;;11.35;81.56;102219.34;10319988;28;20038;-72
2023/04/29 18:12:04;;;;;;;8.95;2.40;;;;;;;11.29;84.13;102222.75;10321289;28;20062;-72
2023/04/29 18:17:05;;;;;;;2.80;2.42;;;;;;;11.18;83.37;102223.09;10336550;28;20104;-72
2023/04/29 18:22:06;;;;;;;3.03;2.65;;;;;;;11.14;84.27;102229.88;10319475;28;20058;-72
2023/04/29 18:27:06;;;;;;;5.28;3.17;;;;;;;10.99;83.04;102223.44;10336691;28;20117;-72
2023/04/29 18:32:07;;;;;;;3.53;2.45;;;;;;;10.88;83.76;102230.88;10336825;28;20471;-72
2023/04/29 18:37:07;;;;;;;5.20;2.28;;;;;;;10.78;83.71;102234.72;10336174;28;20038;-72
2023/04/29 18:42:07;;;;;;;6.25;2.38;;;;;;;10.66;82.98;102228.81;10336208;28;20058;-72
2023/04/29 18:47:08;;;;;;;5.78;2.28;;;;;;;10.55;83.63;102229.94;10335742;28;20069;-72
2023/04/29 18:52:08;;;;;;;4.93;2.67;;;;;;;10.48;83.75;102231.63;10335034;28;20054;-72
2023/04/29 18:57:09;;;;;;;1.90;1.77;;;;;;;10.36;83.18;102241.03;10336268;28;20065;-72
2023/04/29 19:02:09;;;;;;;2.53;2.40;;;;;;;10.25;80.90;102240.28;10318926;28;20525;-72
2023/04/29 19:07:10;;;;;;;2.80;1.88;;;;;;;10.15;80.27;102245.00;10334461;28;20034;-73
2023/04/29 19:12:10;;;;;;;3.97;2.53;;;;;;;10.09;80.71;102253.75;10302385;28;20041;-73
2023/04/29 19:17:10;;;;;;;5.63;2.58;;;;;;;10.00;81.96;102260.13;10335833;28;20438;-72
2023/04/29 19:22:11;;;;;;;8.98;2.63;;;;;;;9.90;81.85;102267.53;10317102;28;20496;-73
2023/04/29 19:27:11;;;;;;;2.00;1.90;;;;;;;9.82;82.14;102270.16;10335816;28;20038;-72
2023/04/29 19:32:12;;;;;;;4.63;2.25;;;;;;;9.73;83.52;102282.78;10334147;28;20590;-73
2023/04/29 19:37:13;;;;;;;10.02;4.15;;;;;;;9.60;83.23;102277.78;10300222;28;20038;-73
2023/04/29 19:42:13;;;;;;;2.70;2.08;;;;;;;9.53;83.26;102279.41;10332922;28;20044;-73
2023/04/29 19:47:13;;;;;;;5.40;3.22;;;;;;;9.50;83.95;102277.88;10333568;28;20043;-73
2023/04/29 19:52:14;;;;;;;3.17;2.92;;;;;;;9.34;84.05;102274.19;10316212;28;20458;-72
2023/04/29 19:57:14;;;;;;;4.70;3.38;;;;;;;9.16;84.65;102291.28;10334088;28;20054;-73
2023/04/29 20:02:15;;;;;;;3.53;3.22;;;;;;;9.06;85.04;102298.56;10315768;28;20089;-73
2023/04/29 20:07:15;;;;;;;3.97;3.58;;;;;;;8.99;85.76;102300.19;10332505;28;20117;-73
2023/04/29 20:12:16;;;;;;;5.25;3.83;;;;;;;8.92;nan;102299.97;10316505;28;20057;-72
2023/04/29 20:17:16;;;;;;;7.80;3.58;;;;;;;8.88;86.58;102298.56;10315431;28;20490;-73
2023/04/29 20:22:16;;;;;;;7.45;4.97;;;;;;;8.85;86.80;102299.72;10315370;28;20042;-73
2023/04/29 20:27:17;;;;;;;13.45;4.93;;;;;;;8.78;87.42;102312.13;10332602;28;20042;-73
2023/04/29 20:32:17;;;;;;;7.75;4.57;;;;;;;8.71;88.02;102311.06;10333590;28;20049;-72
2023/04/29 20:37:18;;;;;;;6.22;5.57;;;;;;;8.59;88.70;102310.41;10333437;28;20037;-75
2023/04/29 20:42:19;;;;;;;9.50;5.03;;;;;;;8.51;89.58;102315.69;10300379;28;20034;-74
2023/04/29 20:47:20;;;;;;;12.85;6.22;;;;;;;8.43;89.99;102322.84;10332941;28;20409;-74
2023/04/29 20:52:20;;;;;;;5.55;5.05;;;;;;;8.42;90.29;102321.13;10315917;28;20042;-74
2023/04/29 20:57:20;;;;;;;14.90;5.95;;;;;;;8.37;90.66;102327.78;10338564;28;20133;-73
2023/04/29 21:02:21;;;;;;;22.77;8.20;;;;;;;8.31;91.04;102324.84;10340151;28;20046;-73
2023/04/29 21:07:21;;;;;;;10.25;7.97;;;;;;;8.29;91.73;102324.13;10339727;28;20120;-73
2023/04/29 21:12:23;;;;;;;9.25;6.85;;;;;;;8.21;91.98;102330.28;10338988;28;20067;-74
2023/04/29 21:17:23;;;;;;;10.40;7.20;;;;;;;8.19;92.07;102334.09;10339770;28;20104;-73
2023/04/29 21:22:24;;;;;;;9.02;7.65;;;;;;;8.09;92.59;102324.19;10289861;28;20054;-74
2023/04/29 21:27:24;;;;;;;14.57;7.95;;;;;;;7.98;92.86;102328.94;10321516;28;20363;-74
2023/04/29 21:32:25;;;;;;;15.63;7.53;;;;;;;7.91;93.75;102328.63;10339334;28;20069;-74
2023/04/29 21:37:25;;;;;;;14.63;7.95;;;;;;;7.88;93.70;102334.31;10320782;28;20041;-73
2023/04/29 21:42:26;;;;;;;17.75;8.60;;;;;;;7.83;94.68;102336.59;10322409;28;20069;-73
2023/04/29 21:47:26;;;;;;;20.48;10.80;;;;;;;7.86;95.50;102341.72;10320931;28;20026;-73
2023/04/29 21:52:27;;;;;;;13.57;8.32;;;;;;;7.80;95.45;102345.81;10305551;28;20041;-74
2023/04/29 21:57:27;;;;;;;13.20;9.30;;;;;;;7.84;96.22;102343.69;10322040;28;20394;-73
2023/04/29 22:02:36;;;;;;;16.45;10.15;;;;;;;7.76;96.98;102348.97;10320124;28;20030;-73
2023/04/29 22:07:37;;;;;;;19.00;11.73;;;;;;;7.75;98.16;102344.56;10306008;28;20094;-72
2023/04/29 22:12:37;;;;;;;19.13;10.73;;;;;;;7.76;100.00;102343.56;10319395;28;20114;-74
2023/04/29 22:17:37;;;;;;;16.60;12.50;;;;;;;7.73;100.00;102352.81;10336437;28;20034;-74
2023/04/29 22:22:38;;;;;;;20.27;15.30;;;;;;;7.69;100.00;102346.84;10336339;28;20038;-71
2023/04/29 22:27:39;;;;;;;16.15;13.25;;;;;;;7.66;100.00;102355.22;10336683;28;20030;-73
2023/04/29 22:32:39;;;;;;;22.00;12.90;;;;;;;7.63;100.00;102339.31;10337727;28;20415;-73
2023/04/29 22:37:40;;;;;;;15.30;11.85;;;;;;;7.54;100.00;102350.13;10303018;28;20133;-72
2023/04/29 22:42:41;;;;;;;17.35;11.93;;;;;;;7.47;100.00;102341.75;10318777;28;20100;-73
2023/04/29 22:47:42;;;;;;;15.20;12.40;;;;;;;7.40;100.00;102343.28;10319654;28;20062;-73